Portada
METAR-TAF:

METAR-TAF

Aeroports :

Tarapoto, Perú

latitud: 06-27S, longitud: 076-23W, altitud: 281 m

Observació

L'informe es va fer fa 31 minuts, a les 17:00 UTC
Vent 3 kt del Oest
Temperatura 34°C
Humitat 50%
Pressió 1012 hPa
Visibilitat 10 km o més
Núvols disperses a una alçada de 1500 ft, Cumulus congestus.

METAR: SPST 191700Z 27003KT 9999 SCT015TCU 34/22 Q1012 RMK BIRD HAZARD RWY 17/35 PP000

Hora: 12:31 (17:31 UTC)

Pronòstic

L'informe es va fer fa 6 hores i 21 minuts, a les 11:10 UTC
Pronòstic vàlid del 19 a les 12 UTC al 20 a les 12 UTC
Vent 5 kt del Sud/Sud-Oest
Visibilitat 10 km o més
Núvols disperses a una alçada de 1500 ft
Núvols disperses a una alçada de 10000 ft
Temporalment
l' 19 a les 18 UTC al 19 a les 20 UTC
Núvols disperses a una alçada de 1500 ft, Cumulus congestus.

TAF: SPST 191110Z 1912/2012 20005KT 9999 SCT015 SCT100 TX35/1919Z TN21/2011Z TEMPO 1918/1920 SCT015TCU

Observacions i pronòstics meteorològics de més de 4000 aeroports (METAR i TAF).

Les estacions disponibles són els punts grocs i vermells al mapa.

Posi el ratolí al punt desitjat per veure el nom de l'estació.

Feu clic per veure les observacions i els pronòstics meteorològics.

Per canviar el mapa: feu clic els botons verds amb una creu de color negre per apropar; al botó verd amb un guió per allunyar la imatge; o en les fletxes verdes per a mapes adjacents.


METAR-TAF: